EGQL/ADX METAR and TAF weather

Enter ICAO airport designator
Station Type Date Time Source
EGQL METAR 2023/03/21 17:50 UTC NOAA

EGQL 211750Z AUTO 22009KT 9999 FEW027/// BKN050/// 11/08 Q0994


Station Type Date Time Source
EGQL Decoded METAR 2023/03/21 17:50 UTC NOAA

Leuchars, United Kingdom (EGQL) 56-23N 002-52W 0M
Mar 21, 2023 - 01:50 PM EDT / 2023.03.21 1750 UTC
Wind: from the SW (220 degrees) at 10 MPH (9 KT):0
Visibility: greater than 7 mile(s):0
Sky conditions: mostly cloudy
Temperature: 51 F (11 C)
Dew Point: 46 F (8 C)
Relative Humidity: 81%
Pressure (altimeter): 29.35 in. Hg (0994 hPa)
ob: EGQL 211750Z AUTO 22009KT 9999 FEW027/// BKN050/// 11/08 Q0994
cycle: 18

Station Type Date Time Source
EGQL TAF 2011/07/27 06:03 UTC NOAA

TAF TAF
AMD EGQL 270424Z 2706/2724 14005KT 9999 BKN020 PROB30
TEMPO 2706/2708 SCT012
BECMG 2708/2710 SCT025

Example: see airport list